Time;durP1;ratioP1;P1;durP2;ratioP2;P2;SDS_P1;SDS_P2;PMS_P1;PMS_P2;Temp;Humidity;BMP_temperature;BMP_pressure;BME280_temperature;BME280_humidity;BME280_pressure;Samples;Min_cycle;Max_cycle;Signal;HPM_P1;HPM_P2
2023/05/31 00:00:43;;;;;;;126.57;115.43;;;;;;;15.36;100.00;101091.13;4992951;28;20061;-81
2023/05/31 00:03:14;;;;;;;148.23;135.57;;;;;;;15.25;100.00;101090.06;4993016;28;20049;-81
2023/05/31 00:05:49;;;;;;;156.52;143.57;;;;;;;15.24;100.00;101088.41;4993120;28;20109;-81
2023/05/31 00:08:23;;;;;;;136.48;124.55;;;;;;;15.16;100.00;101085.22;4992586;28;20042;-81
2023/05/31 00:10:50;;;;;;;134.98;123.55;;;;;;;14.94;100.00;101080.38;4983276;28;20069;-78
2023/05/31 00:13:16;;;;;;;149.88;137.88;;;;;;;14.85;100.00;101089.75;4990382;28;20050;-78
2023/05/31 00:15:43;;;;;;;145.10;133.32;;;;;;;15.10;100.00;101086.97;4988087;28;20050;-78
2023/05/31 00:18:15;;;;;;;158.88;145.73;;;;;;;15.06;100.00;101088.47;4989418;28;20427;-78
2023/05/31 00:20:42;;;;;;;120.45;110.43;;;;;;;15.02;100.00;101084.63;4990754;28;20058;-78
2023/05/31 00:23:11;;;;;;;127.97;116.90;;;;;;;15.01;100.00;101083.00;4992690;28;20744;-81
2023/05/31 00:26:07;;;;;;;138.25;127.00;;;;;;;15.10;100.00;101092.34;4993006;28;20046;-81
2023/05/31 00:28:35;;;;;;;144.07;132.65;;;;;;;15.13;100.00;101086.53;4992591;28;20046;-81
2023/05/31 00:31:05;;;;;;;143.38;131.43;;;;;;;15.06;100.00;101091.13;4975017;28;20057;-81
2023/05/31 00:33:38;;;;;;;171.88;158.77;;;;;;;14.99;100.00;101091.22;4992982;28;20525;-81
2023/05/31 00:36:05;;;;;;;143.32;131.98;;;;;;;14.93;100.00;101100.16;4992711;28;20498;-81
2023/05/31 00:38:33;;;;;;;153.13;140.52;;;;;;;14.94;100.00;101096.44;4986664;28;20058;-78
2023/05/31 00:41:00;;;;;;;139.90;128.32;;;;;;;14.82;100.00;101100.91;4985454;28;20045;-78
2023/05/31 00:43:44;;;;;;;136.15;124.72;;;;;;;14.56;100.00;101094.84;4990658;28;20114;-78
2023/05/31 00:46:17;;;;;;;142.50;130.90;;;;;;;14.74;100.00;101095.88;4990300;28;20066;-78
2023/05/31 00:48:52;;;;;;;182.90;168.88;;;;;;;14.83;100.00;101097.22;4988172;28;20069;-79
2023/05/31 00:51:23;;;;;;;137.57;126.28;;;;;;;14.88;100.00;101100.81;4991854;28;20069;-82
2023/05/31 00:54:01;;;;;;;156.85;144.85;;;;;;;14.81;100.00;101101.97;4991956;28;20058;-81
2023/05/31 00:56:28;;;;;;;150.35;138.35;;;;;;;14.46;100.00;101094.50;4992580;28;20046;-81
2023/05/31 00:58:57;;;;;;;145.90;134.25;;;;;;;14.42;100.00;101093.31;4992098;28;20046;-78
2023/05/31 01:01:32;;;;;;;146.25;134.45;;;;;;;14.60;100.00;101097.88;4988382;28;20046;-78
2023/05/31 01:04:08;;;;;;;144.02;131.68;;;;;;;14.61;100.00;101108.38;4990748;28;20054;-81
2023/05/31 01:07:00;;;;;;;155.70;143.30;;;;;;;14.66;100.00;101103.16;4991004;28;20092;-81
2023/05/31 01:09:36;;;;;;;151.93;140.20;;;;;;;14.39;100.00;101107.94;4992135;28;20418;-81
2023/05/31 01:12:37;;;;;;;167.82;154.38;;;;;;;14.38;100.00;101111.66;4990826;28;20053;-81
2023/05/31 01:15:29;;;;;;;114.32;103.82;;;;;;;14.41;100.00;101105.88;4973029;28;20046;-81
2023/05/31 01:18:18;;;;;;;106.97;97.53;;;;;;;14.62;100.00;101115.34;4986565;28;20076;-81
2023/05/31 01:20:49;;;;;;;112.38;102.18;;;;;;;13.95;100.00;101115.13;4986868;28;20058;-81
2023/05/31 01:23:46;;;;;;;116.53;106.00;;;;;;;13.72;100.00;101114.91;4992326;28;20064;-81
2023/05/31 01:26:34;;;;;;;125.30;114.38;;;;;;;14.13;100.00;101114.38;4985439;28;20073;-81
2023/05/31 01:32:13;;;;;;;143.15;129.88;;;;;;;14.40;100.00;101128.28;4990435;28;20081;-81
2023/05/31 01:35:15;;;;;;;127.57;116.38;;;;;;;14.38;100.00;101124.19;4986836;28;20466;-81
2023/05/31 01:37:45;;;;;;;122.07;111.43;;;;;;;14.25;100.00;101130.50;4973963;28;20426;-81
2023/05/31 01:40:20;;;;;;;103.32;94.05;;;;;;;14.36;100.00;101132.41;4990150;28;20047;-78
2023/05/31 01:42:55;;;;;;;115.35;105.55;;;;;;;14.14;100.00;101118.66;4988716;28;20043;-80
2023/05/31 01:45:34;;;;;;;109.07;99.03;;;;;;;14.12;100.00;101122.59;4990763;28;20054;-81
2023/05/31 01:48:06;;;;;;;102.45;93.22;;;;;;;14.14;100.00;101121.34;4992023;28;20430;-81
2023/05/31 01:50:52;;;;;;;94.85;86.20;;;;;;;14.21;100.00;101122.09;4989628;28;20042;-81
2023/05/31 01:53:19;;;;;;;106.03;96.13;;;;;;;14.14;100.00;101131.22;4986911;28;20042;-81
2023/05/31 01:56:13;;;;;;;110.05;100.45;;;;;;;13.90;100.00;101127.50;4992007;28;20054;-81
2023/05/31 01:58:51;;;;;;;109.03;99.25;;;;;;;14.03;100.00;101134.59;4992234;28;20057;-81
2023/05/31 02:01:42;;;;;;;114.68;104.88;;;;;;;14.09;100.00;101131.84;4998306;28;20088;-81
2023/05/31 02:04:32;;;;;;;110.68;101.38;;;;;;;13.89;100.00;101134.69;4994144;28;20430;-81
2023/05/31 02:07:02;;;;;;;107.32;98.40;;;;;;;13.92;100.00;101130.78;4991885;28;20043;-81
2023/05/31 02:09:29;;;;;;;109.82;100.50;;;;;;;13.82;100.00;101135.78;4991071;28;20049;-81
2023/05/31 02:12:06;;;;;;;100.60;91.90;;;;;;;14.01;100.00;101131.31;4991618;28;20445;-81
2023/05/31 02:14:43;;;;;;;109.30;99.78;;;;;;;13.96;100.00;101131.97;4990056;28;20042;-81
2023/05/31 02:17:13;;;;;;;117.70;108.30;;;;;;;13.91;100.00;101140.63;4975151;28;20070;-81
2023/05/31 02:20:12;;;;;;;132.27;121.78;;;;;;;14.08;100.00;101142.78;4989376;28;20053;-81
2023/05/31 02:22:41;;;;;;;131.05;120.88;;;;;;;13.32;100.00;101138.38;4988646;28;20054;-81
2023/05/31 02:25:26;;;;;;;105.65;96.15;;;;;;;13.54;100.00;101141.53;4986788;28;20104;-81
2023/05/31 02:27:57;;;;;;;91.30;82.43;;;;;;;13.84;100.00;101149.75;4976144;28;20063;-81
2023/05/31 02:30:27;;;;;;;86.10;78.20;;;;;;;14.00;100.00;101151.84;4984870;28;20056;-81
2023/05/31 02:32:54;;;;;;;87.55;79.25;;;;;;;13.91;100.00;101153.16;4995133;28;20054;-81
2023/05/31 02:35:51;;;;;;;88.82;80.57;;;;;;;13.29;100.00;101159.09;4995084;28;20054;-81
2023/05/31 02:38:19;;;;;;;89.43;80.85;;;;;;;13.63;100.00;101156.25;4994583;28;20118;-81
2023/05/31 02:40:52;;;;;;;94.85;86.00;;;;;;;13.65;100.00;101152.31;4995190;28;20046;-81
2023/05/31 02:43:26;;;;;;;107.70;98.32;;;;;;;13.24;100.00;101144.72;4994974;28;20058;-81
2023/05/31 02:45:55;;;;;;;105.43;96.32;;;;;;;13.35;100.00;101152.09;4994748;28;20054;-81
2023/05/31 02:49:14;;;;;;;99.97;90.53;;;;;;;13.62;100.00;101160.75;4995063;28;20062;-81
2023/05/31 02:51:51;;;;;;;92.80;84.82;;;;;;;13.67;100.00;101160.09;4994839;28;20053;-81
2023/05/31 02:54:18;;;;;;;93.68;85.18;;;;;;;13.67;100.00;101160.91;4994247;28;20496;-78
2023/05/31 02:56:51;;;;;;;93.68;85.32;;;;;;;13.77;100.00;101167.63;4993029;28;20046;-78
2023/05/31 02:59:21;;;;;;;94.32;85.97;;;;;;;13.84;100.00;101168.41;4994484;28;20046;-77
2023/05/31 03:02:11;;;;;;;96.75;88.13;;;;;;;14.01;100.00;101168.69;4994387;28;20553;-81
2023/05/31 03:04:38;;;;;;;100.97;92.18;;;;;;;13.99;100.00;101174.25;4993928;28;20054;-78
2023/05/31 03:07:05;;;;;;;92.20;83.75;;;;;;;14.13;100.00;101174.97;4993250;28;20046;-78
2023/05/31 03:09:33;;;;;;;93.38;85.28;;;;;;;14.07;100.00;101170.50;4993978;28;20687;-78
2023/05/31 03:12:00;;;;;;;101.97;93.57;;;;;;;14.18;100.00;101172.47;4992928;28;20050;-78
2023/05/31 03:14:29;;;;;;;91.45;83.00;;;;;;;14.24;100.00;101163.56;4993864;28;20097;-79
2023/05/31 03:17:00;;;;;;;102.25;92.43;;;;;;;14.33;100.00;101177.47;4993317;28;20046;-78
2023/05/31 03:19:45;;;;;;;103.05;93.63;;;;;;;14.58;100.00;101180.13;4980031;28;20130;-81
2023/05/31 03:22:32;;;;;;;104.57;95.18;;;;;;;14.75;100.00;101180.38;4994496;28;20498;-81
2023/05/31 03:24:58;;;;;;;107.53;98.20;;;;;;;14.88;100.00;101185.59;4993532;28;20073;-81
2023/05/31 03:27:25;;;;;;;101.72;92.88;;;;;;;15.10;100.00;101189.47;4993418;28;20042;-78
2023/05/31 03:29:52;;;;;;;112.97;103.47;;;;;;;15.36;100.00;101190.16;4993445;28;20070;-82
2023/05/31 03:32:30;;;;;;;119.55;109.32;;;;;;;15.43;100.00;101192.72;4994073;28;20141;-81
2023/05/31 03:34:59;;;;;;;115.78;105.20;;;;;;;15.46;100.00;101194.97;4988709;28;20454;-78
2023/05/31 03:37:26;;;;;;;137.38;125.25;;;;;;;15.57;100.00;101191.50;4991436;28;20050;-77
2023/05/31 03:39:53;;;;;;;121.90;111.68;;;;;;;15.29;100.00;101194.78;4988159;28;20062;-78
2023/05/31 03:42:20;;;;;;;110.57;100.68;;;;;;;15.40;100.00;101202.06;4993691;28;20495;-81
2023/05/31 03:44:46;;;;;;;113.20;102.80;;;;;;;15.66;100.00;101203.53;4993469;28;20061;-81
2023/05/31 03:47:33;;;;;;;113.05;102.57;;;;;;;15.77;100.00;101197.44;4993480;28;20042;-81
2023/05/31 03:50:02;;;;;;;96.38;87.70;;;;;;;15.82;100.00;101193.25;4993662;28;20043;-81
2023/05/31 03:52:30;;;;;;;111.45;101.60;;;;;;;15.66;100.00;101203.53;4993570;28;20057;-81
2023/05/31 03:54:57;;;;;;;122.53;112.25;;;;;;;15.75;100.00;101202.19;4993331;28;20058;-81
2023/05/31 03:57:29;;;;;;;118.35;108.45;;;;;;;15.80;100.00;101209.56;4993284;28;20046;-81
2023/05/31 03:59:56;;;;;;;107.13;98.07;;;;;;;15.89;100.00;101207.38;4993073;28;20050;-80
2023/05/31 04:02:23;;;;;;;104.30;94.85;;;;;;;15.76;100.00;101203.84;4985855;28;20749;-81
2023/05/31 04:04:53;;;;;;;111.03;101.45;;;;;;;16.08;100.00;101208.91;4991426;28;20050;-81
2023/05/31 04:07:27;;;;;;;111.20;101.82;;;;;;;16.16;100.00;101210.47;4988352;28;20483;-78
2023/05/31 04:09:53;;;;;;;117.85;107.60;;;;;;;16.20;100.00;101209.75;4982971;28;20042;-78
2023/05/31 04:12:20;;;;;;;117.65;107.38;;;;;;;16.26;100.00;101214.19;4990306;28;20042;-78
2023/05/31 04:14:47;;;;;;;122.38;111.88;;;;;;;16.31;100.00;101212.66;4990070;28;20046;-78
2023/05/31 04:17:16;;;;;;;100.65;91.38;;;;;;;16.33;100.00;101200.69;4991874;28;20495;-78
2023/05/31 04:19:43;;;;;;;99.05;89.95;;;;;;;16.31;100.00;101202.78;4992750;28;20051;-81
2023/05/31 04:22:14;;;;;;;105.13;94.45;;;;;;;16.58;100.00;101199.63;4992428;28;20530;-81
2023/05/31 04:24:51;;;;;;;105.57;95.72;;;;;;;16.54;100.00;101204.66;4992303;28;20077;-78
2023/05/31 04:27:18;;;;;;;104.75;95.05;;;;;;;16.61;100.00;101201.84;4987086;28;20046;-78
2023/05/31 04:29:46;;;;;;;104.32;95.00;;;;;;;16.67;100.00;101208.94;4991457;28;20054;-78
2023/05/31 04:32:14;;;;;;;105.07;94.97;;;;;;;16.51;100.00;101199.75;4991512;28;20042;-78
2023/05/31 04:34:57;;;;;;;111.47;100.57;;;;;;;16.85;100.00;101205.34;4989421;28;20055;-78
2023/05/31 04:37:24;;;;;;;;;;;;;;;16.99;100.00;101211.28;4988369;28;20076;-78
2023/05/31 04:39:52;;;;;;;109.07;98.50;;;;;;;16.87;100.00;101213.97;4988643;28;20378;-78
2023/05/31 04:42:24;;;;;;;110.47;99.97;;;;;;;17.16;100.00;101221.06;4989342;28;20060;-78
2023/05/31 04:44:51;;;;;;;116.03;105.32;;;;;;;17.34;100.00;101214.69;4986425;28;20078;-78
2023/05/31 04:47:18;;;;;;;116.20;105.72;;;;;;;17.30;100.00;101210.84;4989368;28;20049;-78
2023/05/31 04:49:46;;;;;;;120.70;110.60;;;;;;;17.50;100.00;101207.75;4986667;28;20050;-79
2023/05/31 04:52:19;;;;;;;131.77;121.25;;;;;;;17.56;100.00;101214.03;4985626;28;20054;-78
2023/05/31 04:54:47;;;;;;;126.55;115.18;;;;;;;17.63;100.00;101215.50;4990825;28;20062;-79
2023/05/31 04:57:15;;;;;;;126.70;116.07;;;;;;;17.91;100.00;101221.13;4988334;28;20054;-78
2023/05/31 04:59:43;;;;;;;126.40;115.32;;;;;;;17.83;100.00;101227.72;4990045;28;20046;-81
2023/05/31 05:02:12;;;;;;;120.32;110.00;;;;;;;17.84;100.00;101223.97;4981747;28;20038;-82
2023/05/31 05:04:45;;;;;;;122.32;111.28;;;;;;;17.96;100.00;101227.41;4992204;28;20062;-81
2023/05/31 05:07:13;;;;;;;128.15;117.25;;;;;;;18.07;100.00;101229.22;4994473;28;20046;-81
2023/05/31 05:09:51;;;;;;;125.97;115.38;;;;;;;18.03;100.00;101227.25;4991079;28;20050;-78
2023/05/31 05:12:19;;;;;;;126.03;115.45;;;;;;;18.20;100.00;101236.13;4988210;28;20684;-78
2023/05/31 05:14:46;;;;;;;129.75;118.40;;;;;;;18.33;100.00;101236.88;4988812;28;20057;-78
2023/05/31 05:17:13;;;;;;;145.45;133.15;;;;;;;18.41;100.00;101239.16;4980054;28;20051;-78
2023/05/31 05:19:40;;;;;;;137.00;124.93;;;;;;;18.69;100.00;101252.47;4977120;28;20046;-78
2023/05/31 05:22:06;;;;;;;135.63;123.07;;;;;;;19.01;100.00;101259.97;4976533;28;20061;-78
2023/05/31 05:24:34;;;;;;;144.90;132.57;;;;;;;19.33;100.00;101254.69;4975120;28;20047;-78
2023/05/31 05:27:00;;;;;;;142.32;130.10;;;;;;;19.13;100.00;101273.31;4985228;28;20108;-78
2023/05/31 05:29:29;;;;;;;142.90;130.40;;;;;;;19.38;100.00;101268.25;4989356;28;20073;-79
2023/05/31 05:31:55;;;;;;;140.52;128.55;;;;;;;19.21;100.00;101273.69;4976055;28;20431;-78
2023/05/31 05:34:22;;;;;;;142.13;130.25;;;;;;;19.58;100.00;101272.25;4979849;28;20514;-78
2023/05/31 05:36:49;;;;;;;147.93;135.25;;;;;;;19.47;100.00;101268.63;4972074;28;20051;-78
2023/05/31 05:39:16;;;;;;;141.00;129.30;;;;;;;19.69;100.00;101271.31;4976344;28;20093;-78
2023/05/31 05:41:43;;;;;;;153.32;140.82;;;;;;;20.07;100.00;101262.25;4983951;28;20458;-82
2023/05/31 05:44:10;;;;;;;147.20;135.05;;;;;;;20.20;100.00;101271.00;4984021;28;20048;-82
2023/05/31 05:46:38;;;;;;;146.10;133.05;;;;;;;20.07;100.00;101266.84;4974584;28;20049;-81
2023/05/31 05:49:07;;;;;;;142.63;131.20;;;;;;;20.09;100.00;101265.53;4977287;28;20046;-82
2023/05/31 05:51:33;;;;;;;140.57;129.18;;;;;;;20.17;100.00;101269.63;4972587;28;20430;-81
2023/05/31 05:54:08;;;;;;;143.40;131.43;;;;;;;20.34;100.00;101270.31;4975615;28;20054;-82
2023/05/31 05:56:38;;;;;;;148.70;136.13;;;;;;;20.32;100.00;101277.84;4989997;28;20514;-81
2023/05/31 05:59:08;;;;;;;146.55;134.45;;;;;;;20.50;100.00;101273.13;4973118;28;20055;-82
2023/05/31 06:01:39;;;;;;;117.32;108.05;;;;;;;20.22;100.00;101277.75;4987887;28;20442;-82
2023/05/31 06:04:07;;;;;;;122.55;112.95;;;;;;;20.31;100.00;101268.13;4985989;28;20058;-82
2023/05/31 06:06:41;;;;;;;133.68;123.03;;;;;;;20.59;100.00;101264.31;4976455;28;20137;-82
2023/05/31 06:09:22;;;;;;;122.47;112.32;;;;;;;20.54;100.00;101261.56;4987769;28;20053;-82
2023/05/31 06:11:59;;;;;;;126.32;116.90;;;;;;;20.78;100.00;101263.88;4994490;28;20050;-82
2023/05/31 06:14:26;;;;;;;138.50;127.53;;;;;;;20.75;100.00;101257.13;4994794;28;20046;-82
2023/05/31 06:16:54;;;;;;;130.32;120.00;;;;;;;21.05;100.00;101261.06;4995037;28;20415;-82
2023/05/31 06:19:45;;;;;;;115.80;106.30;;;;;;;20.87;100.00;101256.91;4995524;28;20460;-82
2023/05/31 06:22:22;;;;;;;120.60;111.00;;;;;;;20.94;100.00;101254.00;4995532;28;20137;-82
2023/05/31 06:24:49;;;;;;;130.15;119.70;;;;;;;21.30;100.00;101260.38;4994889;28;20046;-82
2023/05/31 06:27:16;;;;;;;105.38;97.22;;;;;;;20.93;100.00;101255.06;4995170;28;20399;-82
2023/05/31 06:30:00;;;;;;;111.57;102.43;;;;;;;21.34;100.00;101247.16;4994930;28;20042;-82
2023/05/31 06:32:34;;;;;;;132.43;122.25;;;;;;;21.62;100.00;101254.03;4995026;28;20046;-82
2023/05/31 06:35:18;;;;;;;87.20;80.40;;;;;;;21.54;100.00;101252.63;4995269;28;20564;-81
2023/05/31 06:37:45;;;;;;;87.18;80.10;;;;;;;21.56;100.00;101252.38;4975432;28;20502;-78
2023/05/31 06:40:12;;;;;;;88.13;81.32;;;;;;;21.68;100.00;101248.34;4986643;28;20047;-82
2023/05/31 06:42:52;;;;;;;123.07;113.68;;;;;;;21.90;100.00;101252.72;4976372;28;20062;-82
2023/05/31 06:45:20;;;;;;;100.07;92.00;;;;;;;22.00;100.00;101251.91;4974307;28;20042;-78
2023/05/31 06:47:48;;;;;;;104.90;96.28;;;;;;;22.35;100.00;101249.25;4975438;28;20058;-78
2023/05/31 06:50:15;;;;;;;84.57;78.05;;;;;;;22.11;100.00;101248.94;4994423;28;20050;-78
2023/05/31 06:52:42;;;;;;;110.75;102.07;;;;;;;22.53;100.00;101249.75;4985682;28;20117;-78
2023/05/31 06:55:09;;;;;;;83.63;76.90;;;;;;;22.49;100.00;101246.81;4993710;28;20046;-78
2023/05/31 06:57:38;;;;;;;81.22;74.65;;;;;;;22.74;100.00;101254.06;4992127;28;20525;-78
2023/05/31 07:00:07;;;;;;;122.72;113.80;;;;;;;22.90;100.00;101254.00;4993987;28;20054;-78
2023/05/31 07:02:33;;;;;;;63.13;57.92;;;;;;;22.79;100.00;101243.22;4993762;28;20058;-79
2023/05/31 07:05:02;;;;;;;62.05;56.85;;;;;;;23.03;100.00;101253.47;4989583;28;20438;-78
2023/05/31 07:07:29;;;;;;;66.43;60.25;;;;;;;23.21;100.00;101250.16;4985709;28;20137;-78
2023/05/31 07:09:55;;;;;;;38.45;35.00;;;;;;;23.52;100.00;101250.00;4974141;28;20046;-78
2023/05/31 07:12:22;;;;;;;32.65;29.63;;;;;;;23.45;100.00;101244.06;4973256;28;20051;-78
2023/05/31 07:14:49;;;;;;;34.72;31.45;;;;;;;23.60;100.00;101246.72;4978509;28;20116;-78
2023/05/31 07:17:16;;;;;;;40.22;36.63;;;;;;;23.99;100.00;101251.34;4973994;28;20057;-78
2023/05/31 07:19:47;;;;;;;29.58;26.92;;;;;;;24.08;100.00;101241.50;4986585;28;20426;-78
2023/05/31 07:22:15;;;;;;;28.05;25.15;;;;;;;23.85;100.00;101250.38;4974401;28;20503;-78
2023/05/31 07:24:53;;;;;;;30.13;27.33;;;;;;;24.13;100.00;101252.31;4975252;28;20433;-82
2023/05/31 07:27:21;;;;;;;31.77;28.88;;;;;;;24.04;100.00;101253.22;4987266;28;20085;-82
2023/05/31 07:29:48;;;;;;;33.03;30.02;;;;;;;24.22;100.00;101256.03;4993810;28;20057;-78
2023/05/31 07:32:15;;;;;;;29.00;26.10;;;;;;;23.86;100.00;101258.22;4976385;28;20093;-78
2023/05/31 07:34:49;;;;;;;27.27;24.77;;;;;;;24.13;100.00;101257.75;4984294;28;20050;-79
2023/05/31 07:37:18;;;;;;;27.77;25.10;;;;;;;24.32;100.00;101248.91;4990945;28;20043;-79
2023/05/31 07:39:47;;;;;;;25.30;23.35;;;;;;;23.92;100.00;101254.38;4991466;28;20046;-78
2023/05/31 07:42:13;;;;;;;27.13;24.77;;;;;;;24.08;100.00;101249.63;4991850;28;20085;-78
2023/05/31 07:44:40;;;;;;;25.45;23.40;;;;;;;24.60;100.00;101241.84;4992057;28;20048;-78
2023/05/31 07:47:09;;;;;;;24.02;21.75;;;;;;;24.66;100.00;101236.13;4990000;28;20049;-79
2023/05/31 07:49:38;;;;;;;25.60;23.40;;;;;;;24.23;100.00;101246.78;4987197;28;20061;-78
2023/05/31 07:52:07;;;;;;;23.65;21.75;;;;;;;24.10;100.00;101238.50;4991872;28;20046;-78
2023/05/31 07:54:35;;;;;;;27.08;24.80;;;;;;;24.44;100.00;101233.88;4989833;28;20054;-78
2023/05/31 07:57:03;;;;;;;26.13;24.17;;;;;;;25.08;100.00;101234.56;4990268;28;20054;-79
2023/05/31 07:59:39;;;;;;;25.42;23.23;;;;;;;24.36;100.00;101231.78;4993126;28;20052;-81
2023/05/31 08:02:06;;;;;;;24.50;22.38;;;;;;;25.02;100.00;101237.59;4993281;28;20050;-83
2023/05/31 08:04:44;;;;;;;26.27;23.70;;;;;;;24.98;100.00;101234.66;4983518;28;20523;-78
2023/05/31 08:07:19;;;;;;;23.20;21.17;;;;;;;25.09;100.00;101235.34;4975166;28;20051;-83
2023/05/31 08:09:47;;;;;;;25.40;23.13;;;;;;;24.87;100.00;101231.25;4983988;28;20485;-82
2023/05/31 08:12:22;;;;;;;23.13;21.30;;;;;;;24.84;100.00;101225.56;4993643;28;20117;-82
2023/05/31 08:15:04;;;;;;;24.83;22.85;;;;;;;24.87;100.00;101233.16;4993773;28;20054;-82
2023/05/31 08:17:46;;;;;;;24.95;22.58;;;;;;;24.90;100.00;101238.84;4985493;28;20054;-83
2023/05/31 08:20:33;;;;;;;25.83;23.55;;;;;;;25.30;100.00;101234.03;4974131;28;20050;-83
2023/05/31 08:23:00;;;;;;;25.75;23.42;;;;;;;25.20;100.00;101241.47;4977781;28;20503;-86
2023/05/31 08:25:28;;;;;;;26.00;23.95;;;;;;;24.82;100.00;101235.94;4993755;28;20074;-84
2023/05/31 08:28:01;;;;;;;26.20;23.80;;;;;;;24.87;100.00;101239.41;4987496;28;20042;-87
2023/05/31 08:30:27;;;;;;;25.42;23.27;;;;;;;24.45;100.00;101238.22;4990670;28;20046;-89
2023/05/31 08:32:56;;;;;;;24.33;22.48;;;;;;;24.34;100.00;101242.09;4990826;28;20060;-89
2023/05/31 08:35:25;;;;;;;24.15;22.02;;;;;;;25.29;100.00;101228.84;4992823;28;20054;-88
2023/05/31 08:37:55;;;;;;;23.88;21.80;;;;;;;25.16;100.00;101235.81;4992599;28;20054;-88
2023/05/31 08:40:25;;;;;;;24.40;22.42;;;;;;;24.94;100.00;101230.91;4988126;28;20050;-88
2023/05/31 08:42:58;;;;;;;24.23;22.27;;;;;;;24.96;100.00;101234.13;4988504;28;20050;-88
2023/05/31 08:45:28;;;;;;;26.13;24.00;;;;;;;25.37;100.00;101233.66;4991012;28;20054;-78
2023/05/31 08:48:03;;;;;;;25.23;23.00;;;;;;;25.91;100.00;101234.25;4972946;28;20473;-78
2023/05/31 08:50:37;;;;;;;25.40;23.60;;;;;;;25.38;100.00;101232.53;4972171;28;20408;-78
2023/05/31 08:53:07;;;;;;;25.92;23.90;;;;;;;25.08;100.00;101233.72;4989154;28;20058;-79
2023/05/31 08:55:38;;;;;;;24.67;22.67;;;;;;;25.52;100.00;101221.75;4976072;28;20063;-78
2023/05/31 08:58:09;;;;;;;25.10;22.90;;;;;;;26.12;100.00;101223.84;4981922;28;20482;-78
2023/05/31 09:00:36;;;;;;;25.50;23.60;;;;;;;25.52;100.00;101238.06;4990337;28;20051;-78
2023/05/31 09:03:11;;;;;;;24.67;22.65;;;;;;;25.64;100.00;101233.00;4989812;28;20050;-78
2023/05/31 09:06:03;;;;;;;20.92;19.02;;;;;;;25.64;100.00;101226.75;4991282;28;20054;-88
2023/05/31 09:08:33;;;;;;;23.70;21.73;;;;;;;25.49;100.00;101223.16;4985618;28;20493;-86
2023/05/31 09:11:19;;;;;;;23.58;21.65;;;;;;;25.99;100.00;101228.94;4992417;28;20133;-88
2023/05/31 09:14:08;;;;;;;25.25;23.15;;;;;;;26.20;100.00;101217.69;4986164;28;20057;-88
2023/05/31 09:16:36;;;;;;;23.08;21.13;;;;;;;26.19;100.00;101219.63;4973264;28;20055;-89
2023/05/31 09:19:06;;;;;;;21.70;19.80;;;;;;;25.18;100.00;101228.19;4986023;28;20082;-89
2023/05/31 09:21:40;;;;;;;23.77;21.90;;;;;;;25.64;100.00;101227.56;4974298;28;20085;-88
2023/05/31 09:24:08;;;;;;;24.92;22.63;;;;;;;25.87;100.00;101223.16;4973563;28;20135;-88
2023/05/31 09:26:35;;;;;;;25.13;22.95;;;;;;;26.47;100.00;101206.84;4975423;28;20051;-88
2023/05/31 09:29:02;;;;;;;22.55;20.92;;;;;;;26.02;100.00;101212.03;4973359;28;20055;-88
2023/05/31 09:31:31;;;;;;;24.25;22.35;;;;;;;26.26;100.00;101216.50;4989966;28;20046;-88
2023/05/31 09:33:58;;;;;;;24.88;23.05;;;;;;;26.05;100.00;101218.75;4987618;28;20069;-88
2023/05/31 09:36:26;;;;;;;25.48;23.33;;;;;;;25.72;100.00;101213.28;4995317;28;20061;-78
2023/05/31 09:39:03;;;;;;;22.33;20.25;;;;;;;26.87;100.00;101220.00;4976636;28;20061;-88
2023/05/31 09:41:32;;;;;;;23.17;21.27;;;;;;;27.24;100.00;101210.03;4986773;28;20050;-88
2023/05/31 09:43:59;;;;;;;24.48;22.55;;;;;;;27.43;100.00;101209.88;4994416;28;20522;-88
2023/05/31 09:46:27;;;;;;;25.63;23.25;;;;;;;26.94;100.00;101214.97;4993627;28;20053;-88
2023/05/31 09:49:04;;;;;;;21.45;19.75;;;;;;;27.08;100.00;101207.59;4996499;28;20051;-87
2023/05/31 09:51:37;;;;;;;23.60;21.42;;;;;;;27.11;100.00;101203.44;4994823;28;20045;-88
2023/05/31 09:54:12;;;;;;;23.17;21.33;;;;;;;26.39;100.00;101202.13;4993761;28;20060;-88
2023/05/31 09:56:42;;;;;;;22.77;20.88;;;;;;;26.85;100.00;101208.63;4991435;28;20050;-78
2023/05/31 09:59:09;;;;;;;22.08;20.42;;;;;;;26.77;100.00;101204.69;4992568;28;20499;-80
2023/05/31 10:01:36;;;;;;;22.45;20.35;;;;;;;26.87;100.00;101200.94;4987239;28;20435;-78
2023/05/31 10:04:16;;;;;;;21.55;19.55;;;;;;;26.69;100.00;101198.03;4983661;28;20054;-79
2023/05/31 10:06:45;;;;;;;24.17;21.92;;;;;;;26.69;100.00;101198.03;4978629;28;20072;-78
2023/05/31 10:09:13;;;;;;;22.70;21.00;;;;;;;26.42;100.00;101203.44;4989346;28;20619;-88
2023/05/31 10:11:44;;;;;;;25.45;23.65;;;;;;;26.46;100.00;101205.25;4980837;28;20046;-78
2023/05/31 10:14:19;;;;;;;24.58;22.63;;;;;;;27.59;100.00;101197.47;4986295;28;20050;-78
2023/05/31 10:16:49;;;;;;;23.45;21.45;;;;;;;26.72;100.00;101191.19;4990498;28;20502;-78
2023/05/31 10:19:42;;;;;;;21.63;19.92;;;;;;;27.63;100.00;101193.84;4992189;28;20058;-78
2023/05/31 10:22:10;;;;;;;22.73;20.58;;;;;;;27.59;80.58;101192.00;4991561;28;20120;-78
2023/05/31 10:24:46;;;;;;;22.30;20.45;;;;;;;27.74;86.39;101180.72;4990069;28;20521;-78
2023/05/31 10:27:18;;;;;;;23.05;21.17;;;;;;;27.04;100.00;101184.75;4992868;28;20182;-79
2023/05/31 10:30:08;;;;;;;;;;;;;;;27.19;100.00;101186.38;4995085;28;20050;-78
2023/05/31 10:32:43;;;;;;;23.88;21.88;;;;;;;26.37;100.00;101176.28;4987829;28;19929;-78
2023/05/31 10:35:11;;;;;;;22.58;20.73;;;;;;;26.20;100.00;101176.88;4993979;28;20061;-78
2023/05/31 10:37:40;;;;;;;23.73;21.58;;;;;;;26.49;100.00;101174.72;4994249;28;20054;-78
2023/05/31 10:40:13;;;;;;;21.65;20.05;;;;;;;25.53;100.00;101169.78;4993230;28;20042;-78
2023/05/31 10:42:47;;;;;;;22.17;20.05;;;;;;;26.89;100.00;101164.09;4991871;28;20043;-78
2023/05/31 10:45:22;;;;;;;23.10;21.30;;;;;;;27.18;100.00;101161.06;4976276;28;20058;-78
2023/05/31 10:47:56;;;;;;;23.00;21.00;;;;;;;27.12;100.00;101158.72;4991934;28;20108;-88
2023/05/31 10:50:25;;;;;;;22.92;21.00;;;;;;;27.39;100.00;101161.38;4986044;28;20058;-88
2023/05/31 10:52:52;;;;;;;22.88;20.77;;;;;;;27.01;97.69;101157.31;4993630;28;20046;-78
2023/05/31 10:55:25;;;;;;;24.80;22.35;;;;;;;27.64;90.94;101156.44;4993670;28;20046;-78
2023/05/31 10:57:55;;;;;;;23.58;21.73;;;;;;;27.80;100.00;101154.16;4988554;28;20104;-78
2023/05/31 11:00:42;;;;;;;23.08;20.80;;;;;;;27.15;90.72;101150.75;4993969;28;20065;-78
2023/05/31 11:03:09;;;;;;;21.40;19.67;;;;;;;26.92;91.84;101152.59;4986216;28;20133;-89
2023/05/31 11:05:38;;;;;;;22.58;20.77;;;;;;;27.00;77.62;101148.34;4988830;28;20050;-87
2023/05/31 11:08:13;;;;;;;24.88;22.80;;;;;;;27.64;95.60;101148.25;4994828;28;20108;-87
2023/05/31 11:10:50;;;;;;;29.67;26.48;;;;;;;27.06;100.00;101146.31;4983345;28;20087;-87
2023/05/31 11:13:59;;;;;;;24.52;22.08;;;;;;;26.90;90.71;101146.66;4980120;28;20058;-87
2023/05/31 11:16:27;;;;;;;22.35;20.60;;;;;;;27.13;87.29;101152.94;4990520;28;20069;-88
2023/05/31 11:19:05;;;;;;;22.60;20.80;;;;;;;26.95;90.15;101148.44;4981098;28;20059;-88
2023/05/31 11:21:52;;;;;;;23.70;22.00;;;;;;;26.70;100.00;101147.06;4987572;28;20085;-78